createdAt,value
2023-02-23T00:01:00.595Z,76.75
2023-02-23T00:02:09.727Z,76.89
2023-02-23T00:03:14.606Z,77.33
2023-02-23T00:04:21.409Z,77.13
2023-02-23T00:05:32.246Z,77.20
2023-02-23T00:06:38.747Z,76.86
2023-02-23T00:07:46.034Z,77.40
2023-02-23T00:08:52.547Z,77.08
2023-02-23T00:09:57.415Z,77.01
2023-02-23T00:11:03.747Z,77.19
2023-02-23T00:12:11.880Z,77.32
2023-02-23T00:13:16.738Z,77.45
2023-02-23T00:14:23.328Z,77.38
2023-02-23T00:15:29.868Z,77.19
2023-02-23T00:16:33.921Z,77.37
2023-02-23T00:17:38.642Z,77.51
2023-02-23T00:18:54.190Z,77.60
2023-02-23T00:19:58.835Z,77.52
2023-02-23T00:21:02.676Z,77.74
2023-02-23T00:22:11.246Z,77.91
2023-02-23T00:23:15.772Z,77.79
2023-02-23T00:24:22.510Z,78.08
2023-02-23T00:25:26.720Z,77.87
2023-02-23T00:26:35.346Z,77.97
2023-02-23T00:27:44.784Z,78.03
2023-02-23T00:28:51.522Z,78.35
2023-02-23T00:29:55.526Z,78.63
2023-02-23T00:31:04.586Z,78.70
2023-02-23T00:32:11.740Z,78.81
2023-02-23T00:33:16.498Z,78.99
2023-02-23T00:34:23.825Z,78.86
2023-02-23T00:35:28.435Z,78.80
2023-02-23T00:36:36.642Z,78.98
2023-02-23T00:37:44.560Z,78.80
2023-02-23T00:38:56.217Z,79.23
2023-02-23T00:39:59.980Z,78.94
2023-02-23T00:41:14.534Z,79.00
2023-02-23T00:42:19.265Z,79.03
2023-02-23T00:43:26.222Z,79.16
2023-02-23T00:44:33.876Z,79.21
2023-02-23T00:45:38.063Z,79.04
2023-02-23T00:46:43.662Z,79.40
2023-02-23T00:47:48.918Z,78.91
2023-02-23T00:48:58.911Z,78.89
2023-02-23T00:50:06.206Z,78.97
2023-02-23T00:51:16.816Z,78.78
2023-02-23T00:52:20.893Z,78.88
2023-02-23T00:53:27.318Z,79.24
2023-02-23T00:54:31.306Z,79.21
2023-02-23T00:55:35.221Z,79.40
2023-02-23T00:56:41.054Z,79.66
2023-02-23T00:57:45.057Z,79.70
2023-02-23T00:58:50.618Z,79.69
2023-02-23T00:59:54.408Z,79.72
2023-02-23T01:00:59.722Z,79.77
2023-02-23T01:02:11.417Z,79.65
2023-02-23T01:03:19.025Z,79.27
2023-02-23T01:04:23.552Z,79.47
2023-02-23T01:05:29.956Z,79.44
2023-02-23T01:06:34.990Z,79.55
2023-02-23T01:07:40.258Z,79.59
2023-02-23T01:08:50.776Z,80.28
2023-02-23T01:09:54.691Z,80.20
2023-02-23T01:10:58.605Z,79.96
2023-02-23T01:12:02.805Z,80.09
2023-02-23T01:13:11.505Z,80.10
2023-02-23T01:14:15.832Z,80.59
2023-02-23T01:15:21.539Z,80.47
2023-02-23T01:16:30.455Z,80.69
2023-02-23T01:17:34.117Z,80.51
2023-02-23T01:18:41.102Z,80.68
2023-02-23T01:19:45.077Z,80.84
2023-02-23T01:20:51.105Z,80.65
2023-02-23T01:21:57.731Z,80.52
2023-02-23T01:23:02.692Z,80.50
2023-02-23T01:24:13.594Z,80.84
2023-02-23T01:25:18.905Z,80.91
2023-02-23T01:26:36.812Z,80.99
2023-02-23T01:27:42.738Z,81.01
2023-02-23T01:29:01.179Z,80.69
2023-02-23T01:30:08.991Z,80.59
2023-02-23T01:31:15.969Z,80.46
2023-02-23T01:32:20.440Z,80.62
2023-02-23T01:33:24.208Z,80.61
2023-02-23T01:34:28.467Z,80.51
2023-02-23T01:35:33.481Z,80.59
2023-02-23T01:36:40.077Z,80.78
2023-02-23T01:37:44.925Z,80.42
2023-02-23T01:38:50.150Z,80.71
2023-02-23T01:39:54.346Z,80.66
2023-02-23T01:40:58.786Z,80.72
2023-02-23T01:42:03.177Z,80.86
2023-02-23T01:43:14.209Z,80.74
2023-02-23T01:44:21.465Z,80.89
2023-02-23T01:45:35.849Z,80.75
2023-02-23T01:46:45.740Z,80.65
2023-02-23T01:47:56.383Z,80.57
2023-02-23T01:49:04.285Z,80.53
2023-02-23T01:50:12.945Z,80.31
2023-02-23T01:51:24.804Z,80.61
2023-02-23T01:52:29.960Z,80.39
2023-02-23T01:53:42.256Z,80.42
2023-02-23T01:54:55.353Z,80.67
2023-02-23T01:56:22.649Z,80.93
2023-02-23T01:57:27.828Z,80.65
2023-02-23T01:58:34.208Z,80.54
2023-02-23T01:59:46.753Z,80.71
2023-02-23T02:00:58.430Z,80.42
2023-02-23T02:02:10.056Z,80.55
2023-02-23T02:03:44.196Z,80.43
2023-02-23T02:04:52.625Z,80.69
2023-02-23T02:06:00.363Z,80.78
2023-02-23T02:07:07.364Z,80.55
2023-02-23T02:08:14.920Z,80.78
2023-02-23T02:09:26.015Z,81.57
2023-02-23T02:10:41.144Z,81.22
2023-02-23T02:11:54.426Z,81.21
2023-02-23T02:12:58.730Z,81.05
2023-02-23T02:14:16.275Z,80.77
2023-02-23T02:15:26.305Z,80.65
2023-02-23T02:17:11.358Z,80.82
2023-02-23T02:19:00.966Z,80.92
2023-02-23T02:21:41.187Z,80.88
2023-02-23T02:23:33.348Z,80.93
2023-02-23T02:25:18.856Z,80.75
2023-02-23T02:27:01.595Z,80.72
2023-02-23T02:28:56.931Z,80.41
2023-02-23T02:30:41.863Z,80.69
2023-02-23T02:32:11.403Z,80.95
2023-02-23T02:33:58.517Z,81.03
2023-02-23T02:35:19.085Z,81.25
2023-02-23T02:37:15.077Z,80.79
2023-02-23T02:38:54.083Z,81.36
2023-02-23T02:40:28.123Z,81.37
2023-02-23T02:42:12.684Z,81.27
2023-02-23T02:43:56.033Z,81.52
2023-02-23T02:45:47.428Z,81.84
2023-02-23T02:47:08.856Z,81.62
2023-02-23T02:49:24.169Z,81.42
2023-02-23T02:50:51.663Z,81.35
2023-02-23T02:52:13.932Z,81.05
2023-02-23T02:53:46.952Z,81.08
2023-02-23T02:55:17.636Z,81.30
2023-02-23T02:56:27.257Z,81.84
2023-02-23T02:57:33.390Z,81.93
2023-02-23T02:58:39.367Z,81.56
2023-02-23T03:00:09.563Z,81.98
2023-02-23T03:01:36.242Z,82.10
2023-02-23T03:03:00.799Z,82.16
2023-02-23T03:04:44.424Z,82.04
2023-02-23T03:06:12.205Z,82.20
2023-02-23T03:07:46.587Z,81.99
2023-02-23T03:09:44.165Z,82.10
2023-02-23T03:11:24.612Z,82.01
2023-02-23T03:13:20.842Z,82.13
2023-02-23T03:15:19.213Z,82.00
2023-02-23T03:17:14.521Z,81.93
2023-02-23T03:18:43.185Z,82.00
2023-02-23T03:20:36.682Z,82.33
2023-02-23T03:22:26.847Z,82.25
2023-02-23T03:24:21.005Z,81.83
2023-02-23T03:26:04.523Z,81.97
2023-02-23T03:27:45.392Z,81.93
2023-02-23T03:29:35.990Z,81.78
2023-02-23T03:31:02.614Z,81.75
2023-02-23T03:32:46.142Z,81.39
2023-02-23T03:34:48.298Z,81.24
2023-02-23T03:36:30.529Z,81.24
2023-02-23T03:38:08.741Z,81.25
2023-02-23T03:40:18.916Z,81.49
2023-02-23T03:41:47.882Z,81.28
2023-02-23T03:43:17.857Z,81.40
2023-02-23T03:44:52.001Z,81.20
2023-02-23T03:46:21.171Z,81.15
2023-02-23T03:47:53.397Z,81.55
2023-02-23T03:49:22.750Z,81.70
2023-02-23T03:51:09.099Z,81.36
2023-02-23T03:52:43.703Z,81.26
2023-02-23T03:54:50.775Z,81.15
2023-02-23T03:56:20.048Z,81.32
2023-02-23T03:57:49.372Z,80.93
2023-02-23T03:59:23.049Z,81.00
2023-02-23T04:00:55.663Z,80.85
2023-02-23T04:02:20.592Z,81.28
2023-02-23T04:03:50.686Z,81.06
2023-02-23T04:05:18.685Z,81.11
2023-02-23T04:06:48.541Z,81.07
2023-02-23T04:08:15.273Z,80.92
2023-02-23T04:09:38.577Z,81.11
2023-02-23T04:11:13.820Z,81.03
2023-02-23T04:13:14.800Z,80.92
2023-02-23T04:14:40.563Z,80.97
2023-02-23T04:16:09.539Z,81.49
2023-02-23T04:17:17.147Z,81.32
2023-02-23T04:18:50.849Z,81.26
2023-02-23T04:19:56.041Z,81.17
2023-02-23T04:21:01.584Z,80.97
2023-02-23T04:22:10.606Z,81.33
2023-02-23T04:23:15.884Z,80.96
2023-02-23T04:24:20.461Z,80.88
2023-02-23T04:25:25.203Z,80.96
2023-02-23T04:26:30.499Z,81.15
2023-02-23T04:27:35.294Z,80.98
2023-02-23T04:28:40.579Z,80.94
2023-02-23T04:29:45.411Z,80.91
2023-02-23T04:30:50.861Z,81.14
2023-02-23T04:31:55.054Z,81.40
2023-02-23T04:32:59.564Z,81.41
2023-02-23T04:34:06.303Z,81.35
2023-02-23T04:35:14.317Z,81.16
2023-02-23T04:36:19.226Z,81.24
2023-02-23T04:37:23.767Z,81.23
2023-02-23T04:38:28.485Z,81.48
2023-02-23T04:39:33.211Z,81.56
2023-02-23T04:40:38.614Z,81.61
2023-02-23T04:41:43.971Z,81.18
2023-02-23T04:42:48.146Z,81.25
2023-02-23T04:43:55.023Z,81.16
2023-02-23T04:44:59.731Z,81.20
2023-02-23T04:46:03.818Z,81.19
2023-02-23T04:47:11.421Z,81.50
2023-02-23T04:48:16.141Z,81.18
2023-02-23T04:49:20.376Z,81.33
2023-02-23T04:50:25.415Z,81.19
2023-02-23T04:51:32.566Z,81.25
2023-02-23T04:52:39.451Z,81.09
2023-02-23T04:53:44.416Z,81.11
2023-02-23T04:54:48.559Z,80.62
2023-02-23T04:55:53.177Z,80.89
2023-02-23T04:57:10.992Z,80.79
2023-02-23T04:58:15.591Z,80.82
2023-02-23T04:59:20.637Z,80.65
2023-02-23T05:00:25.845Z,80.92
2023-02-23T05:01:30.705Z,80.81
2023-02-23T05:02:35.186Z,81.11
2023-02-23T05:03:39.989Z,81.19
2023-02-23T05:04:45.064Z,80.92
2023-02-23T05:05:49.133Z,81.09
2023-02-23T05:06:53.860Z,81.01
2023-02-23T05:07:59.154Z,80.92
2023-02-23T05:09:08.181Z,80.98
2023-02-23T05:10:12.717Z,81.17
2023-02-23T05:11:16.726Z,81.53
2023-02-23T05:12:21.761Z,81.24
2023-02-23T05:13:26.135Z,81.40
2023-02-23T05:14:30.168Z,81.41
2023-02-23T05:15:34.301Z,81.50
2023-02-23T05:16:39.175Z,81.31
2023-02-23T05:17:43.472Z,81.28
2023-02-23T05:18:47.986Z,81.42
2023-02-23T05:19:52.588Z,81.29
2023-02-23T05:21:11.343Z,81.18
2023-02-23T05:22:16.528Z,81.33
2023-02-23T05:23:22.107Z,81.61
2023-02-23T05:24:27.188Z,81.42
2023-02-23T05:25:32.134Z,81.33
2023-02-23T05:26:36.859Z,81.45
2023-02-23T05:27:41.996Z,81.69
2023-02-23T05:28:46.530Z,81.63
2023-02-23T05:29:50.353Z,81.52
2023-02-23T05:30:55.972Z,81.47
2023-02-23T05:32:00.803Z,81.49
2023-02-23T05:33:12.450Z,81.21
2023-02-23T05:34:19.106Z,81.18
2023-02-23T05:35:24.245Z,81.31
2023-02-23T05:36:29.574Z,81.49
2023-02-23T05:37:35.322Z,81.45
2023-02-23T05:38:41.362Z,81.97
2023-02-23T05:39:46.940Z,81.56
2023-02-23T05:40:51.585Z,81.32
2023-02-23T05:41:55.617Z,81.47
2023-02-23T05:43:00.713Z,81.44
2023-02-23T05:44:06.377Z,81.59
2023-02-23T05:45:12.674Z,81.50
2023-02-23T05:46:21.875Z,81.41
2023-02-23T05:47:26.714Z,81.18
2023-02-23T05:48:35.014Z,80.92
2023-02-23T05:49:39.300Z,81.10
2023-02-23T05:50:49.116Z,81.17
2023-02-23T05:51:53.668Z,81.16
2023-02-23T05:52:58.404Z,81.11
2023-02-23T05:54:03.065Z,81.18
2023-02-23T05:55:16.292Z,81.29
2023-02-23T05:56:21.548Z,81.12
2023-02-23T05:57:25.505Z,81.44
2023-02-23T05:58:30.844Z,81.51
2023-02-23T05:59:36.122Z,81.28
2023-02-23T06:00:45.438Z,81.28
2023-02-23T06:01:50.538Z,81.38
2023-02-23T06:02:55.943Z,81.29
2023-02-23T06:04:01.043Z,81.34
2023-02-23T06:05:09.326Z,81.18
2023-02-23T06:06:14.875Z,81.12
2023-02-23T06:07:19.733Z,81.26
2023-02-23T06:08:26.751Z,81.35
2023-02-23T06:09:31.596Z,80.92
2023-02-23T06:10:39.981Z,81.30
2023-02-23T06:11:45.311Z,81.29
2023-02-23T06:12:53.096Z,81.05
2023-02-23T06:14:00.888Z,80.94
2023-02-23T06:15:13.171Z,80.77
2023-02-23T06:16:18.089Z,81.05
2023-02-23T06:17:22.625Z,80.69
2023-02-23T06:18:30.518Z,80.92
2023-02-23T06:19:36.572Z,80.89
2023-02-23T06:20:41.781Z,80.77
2023-02-23T06:21:47.635Z,80.84
2023-02-23T06:22:53.253Z,80.99
2023-02-23T06:24:01.026Z,81.17
2023-02-23T06:25:12.966Z,80.89
2023-02-23T06:26:17.240Z,81.05
2023-02-23T06:27:21.135Z,81.08
2023-02-23T06:28:26.280Z,80.84
2023-02-23T06:29:31.528Z,80.72
2023-02-23T06:30:36.256Z,80.67
2023-02-23T06:31:41.118Z,80.70
2023-02-23T06:32:45.639Z,80.86
2023-02-23T06:33:50.071Z,80.62
2023-02-23T06:34:54.382Z,80.89
2023-02-23T06:35:59.083Z,80.40
2023-02-23T06:37:04.407Z,80.41
2023-02-23T06:38:12.701Z,80.24
2023-02-23T06:39:17.544Z,80.19
2023-02-23T06:40:22.380Z,80.16
2023-02-23T06:41:27.632Z,79.86
2023-02-23T06:42:37.559Z,79.81
2023-02-23T06:43:45.146Z,79.42
2023-02-23T06:44:49.448Z,79.28
2023-02-23T06:45:57.093Z,79.12
2023-02-23T06:47:03.863Z,79.22
2023-02-23T06:48:11.547Z,79.12
2023-02-23T06:49:16.973Z,78.95
2023-02-23T06:50:21.714Z,78.72
2023-02-23T06:51:26.527Z,78.68
2023-02-23T06:52:31.340Z,78.66
2023-02-23T06:53:38.618Z,78.41
2023-02-23T06:54:43.534Z,78.28
2023-02-23T06:55:47.942Z,78.20
2023-02-23T06:56:53.581Z,78.12
2023-02-23T06:58:03.170Z,77.99
2023-02-23T06:59:15.307Z,78.14
2023-02-23T07:00:31.386Z,78.43
2023-02-23T07:01:48.426Z,78.24
2023-02-23T07:02:53.671Z,78.31
2023-02-23T07:03:59.822Z,78.25
2023-02-23T07:05:10.194Z,77.90
2023-02-23T07:06:16.992Z,77.93
2023-02-23T07:07:20.995Z,78.06
2023-02-23T07:08:25.806Z,77.76
2023-02-23T07:09:33.076Z,77.40
2023-02-23T07:10:38.091Z,77.17
2023-02-23T07:11:52.262Z,77.43
2023-02-23T07:12:57.377Z,77.38
2023-02-23T07:14:02.289Z,77.37
2023-02-23T07:15:16.127Z,77.09
2023-02-23T07:16:24.600Z,77.28
2023-02-23T07:17:29.325Z,77.42
2023-02-23T07:18:33.974Z,76.94
2023-02-23T07:19:40.533Z,76.69
2023-02-23T07:20:45.028Z,76.42
2023-02-23T07:21:49.446Z,76.32
2023-02-23T07:22:54.695Z,76.02
2023-02-23T07:24:07.302Z,75.99
2023-02-23T07:25:12.654Z,76.59
2023-02-23T07:26:18.855Z,76.36
2023-02-23T07:27:23.927Z,76.58
2023-02-23T07:28:29.109Z,76.15
2023-02-23T07:29:40.930Z,76.13
2023-02-23T07:30:46.938Z,75.83
2023-02-23T07:31:51.326Z,75.42
2023-02-23T07:32:55.885Z,75.28
2023-02-23T07:34:00.262Z,75.05
2023-02-23T07:35:09.817Z,75.18
2023-02-23T07:36:14.176Z,74.83
2023-02-23T07:37:18.726Z,74.70
2023-02-23T07:38:25.090Z,74.36
2023-02-23T07:39:29.190Z,74.09
2023-02-23T07:40:33.812Z,73.92
2023-02-23T07:41:37.922Z,73.89
2023-02-23T07:42:42.276Z,73.92
2023-02-23T07:43:47.143Z,74.11
2023-02-23T07:44:51.042Z,73.81
2023-02-23T07:45:55.320Z,73.72
2023-02-23T07:46:59.160Z,73.46
2023-02-23T07:48:03.709Z,72.88
2023-02-23T07:49:13.383Z,72.68
2023-02-23T07:50:18.112Z,72.39
2023-02-23T07:51:22.641Z,72.82
2023-02-23T07:52:26.748Z,72.48
2023-02-23T07:53:32.190Z,72.42
2023-02-23T07:54:37.391Z,72.31
2023-02-23T07:55:41.852Z,71.51
2023-02-23T07:56:46.581Z,70.80
2023-02-23T07:57:52.006Z,71.30
2023-02-23T07:58:56.301Z,69.64
2023-02-23T08:00:04.471Z,69.70
2023-02-23T08:01:14.737Z,69.20
2023-02-23T08:02:19.667Z,68.42
2023-02-23T08:03:26.664Z,67.63
2023-02-23T08:04:31.876Z,66.52
2023-02-23T08:05:37.481Z,67.09
2023-02-23T08:06:47.449Z,66.06
2023-02-23T08:07:52.263Z,65.27
2023-02-23T08:09:13.260Z,62.98
2023-02-23T08:10:22.623Z,62.21
2023-02-23T08:11:35.806Z,62.32
2023-02-23T08:12:39.837Z,61.65
2023-02-23T08:13:44.244Z,59.29
2023-02-23T08:14:54.459Z,59.67
2023-02-23T08:16:01.296Z,58.64
2023-02-23T08:17:12.888Z,58.16
2023-02-23T08:18:23.174Z,56.67
2023-02-23T08:19:33.391Z,56.46
2023-02-23T08:20:39.309Z,55.29
2023-02-23T08:21:49.489Z,55.16
2023-02-23T08:22:58.785Z,54.42
2023-02-23T08:24:09.872Z,53.61
2023-02-23T08:25:17.877Z,52.29
2023-02-23T08:26:26.765Z,50.99
2023-02-23T08:27:35.482Z,50.86
2023-02-23T08:28:46.689Z,50.72
2023-02-23T08:29:55.052Z,50.06
2023-02-23T08:31:00.248Z,49.14
2023-02-23T08:32:16.408Z,47.42
2023-02-23T08:33:23.984Z,46.77
2023-02-23T08:34:33.896Z,47.74
2023-02-23T08:35:39.293Z,46.82
2023-02-23T08:36:50.039Z,46.95
2023-02-23T08:38:01.952Z,47.08
2023-02-23T08:39:12.986Z,45.42
2023-02-23T08:40:20.932Z,45.88
2023-02-23T08:41:30.146Z,45.25
2023-02-23T08:42:36.497Z,43.40
2023-02-23T08:43:45.167Z,44.18
2023-02-23T08:44:52.035Z,43.69
2023-02-23T08:46:00.439Z,43.96
2023-02-23T08:47:19.339Z,43.44
2023-02-23T08:48:26.719Z,42.72
2023-02-23T08:49:34.345Z,41.16
2023-02-23T08:50:41.880Z,42.08
2023-02-23T08:51:48.952Z,40.82
2023-02-23T08:52:58.474Z,40.89
2023-02-23T08:54:06.234Z,40.67
2023-02-23T08:55:21.465Z,39.61
2023-02-23T08:56:29.023Z,40.27
2023-02-23T08:57:37.337Z,40.34
2023-02-23T08:58:45.923Z,39.16
2023-02-23T08:59:53.815Z,38.69
2023-02-23T09:01:00.464Z,38.29
2023-02-23T09:02:13.822Z,38.05
2023-02-23T09:03:29.890Z,37.83
2023-02-23T09:04:45.208Z,37.74
2023-02-23T09:05:51.723Z,36.66
2023-02-23T09:06:55.522Z,36.45
2023-02-23T09:08:02.165Z,35.92
2023-02-23T09:09:09.297Z,35.40
2023-02-23T09:10:25.264Z,35.28
2023-02-23T09:11:29.420Z,33.74
2023-02-23T09:12:33.431Z,34.74
2023-02-23T09:13:37.492Z,34.37
2023-02-23T09:14:41.745Z,34.19
2023-02-23T09:15:45.680Z,34.73
2023-02-23T09:16:49.588Z,34.36
2023-02-23T09:17:54.839Z,35.04
2023-02-23T09:19:01.617Z,35.46
2023-02-23T09:20:10.008Z,36.07
2023-02-23T09:21:22.386Z,36.22
2023-02-23T09:22:27.156Z,36.19
2023-02-23T09:23:32.283Z,35.80
2023-02-23T09:24:38.794Z,35.77
2023-02-23T09:27:03.591Z,36.19
2023-02-23T09:28:17.047Z,35.95
2023-02-23T09:29:26.838Z,35.98
2023-02-23T09:30:33.531Z,36.16
2023-02-23T09:31:41.102Z,36.02
2023-02-23T09:32:46.324Z,36.14
2023-02-23T09:33:52.628Z,36.22
2023-02-23T09:34:57.574Z,35.98
2023-02-23T09:36:12.929Z,36.43
2023-02-23T09:37:17.952Z,36.70
2023-02-23T09:38:21.948Z,37.03
2023-02-23T09:39:37.729Z,36.73
2023-02-23T09:40:53.330Z,36.71
2023-02-23T09:42:31.393Z,36.93
2023-02-23T09:43:55.267Z,38.21
2023-02-23T09:45:30.077Z,38.88
2023-02-23T09:47:11.641Z,39.84
2023-02-23T09:48:28.987Z,40.22
2023-02-23T09:49:41.322Z,40.88
2023-02-23T09:50:54.128Z,41.23
2023-02-23T09:52:07.202Z,42.18
2023-02-23T09:53:35.053Z,42.84
2023-02-23T09:54:40.211Z,43.44
2023-02-23T09:55:45.788Z,43.72
2023-02-23T09:56:53.345Z,44.24
2023-02-23T09:58:14.050Z,44.60
2023-02-23T09:59:23.843Z,45.35
2023-02-23T10:00:28.462Z,46.08
2023-02-23T10:01:48.883Z,46.38
2023-02-23T10:03:35.230Z,47.49
2023-02-23T10:05:03.678Z,47.41
2023-02-23T10:06:18.466Z,48.00
2023-02-23T10:08:12.337Z,48.12
2023-02-23T10:09:38.589Z,48.35
2023-02-23T10:11:19.036Z,49.03
2023-02-23T10:12:52.570Z,49.10
2023-02-23T10:14:23.780Z,50.07
2023-02-23T10:15:52.348Z,51.12
2023-02-23T10:17:19.760Z,50.92
2023-02-23T10:18:46.239Z,51.17
2023-02-23T10:20:18.546Z,51.96
2023-02-23T10:21:43.444Z,52.20
2023-02-23T10:22:51.654Z,51.96
2023-02-23T10:24:01.111Z,52.03
2023-02-23T10:25:20.020Z,51.95
2023-02-23T10:26:47.774Z,52.15
2023-02-23T10:27:56.199Z,51.71
2023-02-23T10:29:01.138Z,52.73
2023-02-23T10:30:26.991Z,52.64
2023-02-23T10:31:43.512Z,52.92
2023-02-23T10:33:06.621Z,53.40
2023-02-23T10:34:17.741Z,53.99
2023-02-23T10:35:24.497Z,53.49
2023-02-23T10:36:48.407Z,54.24
2023-02-23T10:37:55.207Z,54.24
2023-02-23T10:39:00.255Z,54.58
2023-02-23T10:40:12.351Z,54.67
2023-02-23T10:41:26.599Z,55.91
2023-02-23T10:42:32.327Z,55.77
2023-02-23T10:43:36.432Z,56.31
2023-02-23T10:44:46.397Z,56.82
2023-02-23T10:45:53.892Z,56.56
2023-02-23T10:47:15.059Z,57.50
2023-02-23T10:48:34.631Z,57.03
2023-02-23T10:49:50.373Z,57.49
2023-02-23T10:51:07.328Z,57.28
2023-02-23T10:52:41.986Z,57.69
2023-02-23T10:53:46.534Z,57.38
2023-02-23T10:54:52.913Z,57.20
2023-02-23T10:56:15.414Z,57.21
2023-02-23T10:57:34.893Z,57.63
2023-02-23T10:59:14.844Z,58.04
2023-02-23T11:02:02.502Z,57.63
2023-02-23T11:03:37.092Z,57.42
2023-02-23T11:04:55.813Z,57.34
2023-02-23T11:06:01.334Z,56.66
2023-02-23T11:07:22.005Z,57.79
2023-02-23T11:08:40.241Z,57.32
2023-02-23T11:09:47.522Z,57.70
2023-02-23T11:11:21.402Z,58.04
2023-02-23T11:12:35.683Z,58.41
2023-02-23T11:13:52.608Z,58.33
2023-02-23T11:15:07.544Z,58.82
2023-02-23T11:16:30.157Z,58.85
2023-02-23T11:17:39.069Z,58.75
2023-02-23T11:19:00.931Z,59.29
2023-02-23T11:20:40.815Z,58.62
2023-02-23T11:21:53.448Z,58.18
2023-02-23T11:23:09.587Z,58.30
2023-02-23T11:24:25.509Z,58.19
2023-02-23T11:25:32.709Z,59.05
2023-02-23T11:26:44.342Z,58.43
2023-02-23T11:27:54.627Z,58.11
2023-02-23T11:29:11.224Z,58.09
2023-02-23T11:30:17.416Z,58.13
2023-02-23T11:31:36.118Z,58.11
2023-02-23T11:32:42.981Z,57.91
2023-02-23T11:33:49.403Z,58.20
2023-02-23T11:35:27.346Z,58.51
2023-02-23T11:36:38.005Z,59.50
2023-02-23T11:37:42.398Z,59.18
2023-02-23T11:38:48.058Z,59.37
2023-02-23T11:39:58.654Z,59.54
2023-02-23T11:41:18.533Z,59.07
2023-02-23T11:42:33.859Z,59.61
2023-02-23T11:43:38.080Z,58.95
2023-02-23T11:44:42.755Z,59.24
2023-02-23T11:46:09.647Z,59.19
2023-02-23T11:47:26.308Z,59.30
2023-02-23T11:49:01.862Z,59.78
2023-02-23T11:50:20.688Z,59.69
2023-02-23T11:51:42.080Z,59.82
2023-02-23T11:52:50.349Z,59.27
2023-02-23T11:53:55.919Z,59.33
2023-02-23T11:55:07.573Z,59.40
2023-02-23T11:56:13.542Z,59.26
2023-02-23T11:57:24.568Z,59.09
2023-02-23T11:58:39.880Z,59.00
2023-02-23T11:59:47.223Z,59.20
2023-02-23T12:01:13.985Z,59.28
2023-02-23T12:02:26.047Z,58.97
2023-02-23T12:03:34.281Z,59.26
2023-02-23T12:04:48.066Z,59.05
2023-02-23T12:05:59.315Z,59.08
2023-02-23T12:07:39.030Z,59.00
2023-02-23T12:08:50.171Z,59.57
2023-02-23T12:10:34.142Z,59.27
2023-02-23T12:11:46.116Z,58.77
2023-02-23T12:13:08.933Z,59.05
2023-02-23T12:14:43.360Z,58.43
2023-02-23T12:16:04.703Z,58.53
2023-02-23T12:17:34.302Z,58.74
2023-02-23T12:19:27.736Z,58.52
2023-02-23T12:20:44.114Z,58.29
2023-02-23T12:22:07.099Z,58.44
2023-02-23T12:23:20.485Z,58.17
2023-02-23T12:24:47.522Z,58.39
2023-02-23T12:26:21.589Z,58.32
2023-02-23T12:27:41.913Z,58.35
2023-02-23T12:29:14.067Z,58.12
2023-02-23T12:30:32.200Z,57.78
2023-02-23T12:31:47.883Z,57.61
2023-02-23T12:32:59.175Z,57.83
2023-02-23T12:34:44.710Z,57.65
2023-02-23T12:36:09.430Z,57.85
2023-02-23T12:37:29.181Z,58.06
2023-02-23T12:39:18.180Z,58.43
2023-02-23T12:40:33.177Z,58.30
2023-02-23T12:41:54.252Z,58.16
2023-02-23T12:43:23.243Z,57.72
2023-02-23T12:44:55.128Z,57.77
2023-02-23T12:46:14.388Z,58.43
2023-02-23T12:48:09.101Z,57.96
2023-02-23T12:49:22.630Z,57.80
2023-02-23T12:50:35.925Z,57.66
2023-02-23T12:51:52.056Z,57.95
2023-02-23T12:53:27.818Z,57.46
2023-02-23T12:54:33.395Z,57.39
2023-02-23T12:56:04.944Z,57.43
2023-02-23T12:57:24.974Z,57.35
2023-02-23T12:59:07.517Z,57.67
2023-02-23T13:00:46.470Z,58.20
2023-02-23T13:02:08.816Z,57.70
2023-02-23T13:03:54.250Z,57.73
2023-02-23T13:05:41.865Z,57.25
2023-02-23T13:07:05.051Z,57.13
2023-02-23T13:08:34.327Z,57.36
2023-02-23T13:09:49.067Z,57.51
2023-02-23T13:11:16.321Z,57.68
2023-02-23T13:12:56.038Z,57.41
2023-02-23T13:14:40.084Z,57.68
2023-02-23T13:16:33.273Z,57.40
2023-02-23T13:17:55.054Z,57.30
2023-02-23T13:19:30.934Z,57.18
2023-02-23T13:20:48.064Z,57.38
2023-02-23T13:21:57.943Z,57.13
2023-02-23T13:23:10.963Z,56.88
2023-02-23T13:24:20.501Z,57.38
2023-02-23T13:25:52.529Z,57.05
2023-02-23T13:27:17.428Z,57.00
2023-02-23T13:28:51.149Z,57.10
2023-02-23T13:29:59.364Z,57.05
2023-02-23T13:31:05.970Z,57.21
2023-02-23T13:32:19.988Z,57.31
2023-02-23T13:33:43.679Z,57.12
2023-02-23T13:34:58.764Z,57.36
2023-02-23T13:36:06.792Z,57.37
2023-02-23T13:37:17.318Z,57.31
2023-02-23T13:38:42.777Z,57.01
2023-02-23T13:40:07.505Z,56.89
2023-02-23T13:41:46.707Z,56.85
2023-02-23T13:43:30.969Z,57.17
2023-02-23T13:44:46.545Z,57.24
2023-02-23T13:46:26.465Z,57.38
2023-02-23T13:47:50.272Z,57.69
2023-02-23T13:49:21.480Z,57.47
2023-02-23T13:51:14.761Z,57.54
2023-02-23T13:52:41.236Z,57.88
2023-02-23T13:53:57.953Z,57.86
2023-02-23T13:55:04.147Z,57.64
2023-02-23T13:56:18.241Z,57.71
2023-02-23T13:57:25.339Z,57.65
2023-02-23T13:58:33.114Z,57.66
2023-02-23T13:59:50.789Z,57.86
2023-02-23T14:01:21.431Z,57.74
2023-02-23T14:02:42.144Z,57.75
2023-02-23T14:03:59.357Z,57.92
2023-02-23T14:05:16.258Z,57.93
2023-02-23T14:06:25.438Z,57.82
2023-02-23T14:07:40.159Z,57.83
2023-02-23T14:08:52.465Z,57.61
2023-02-23T14:10:16.314Z,57.69
2023-02-23T14:12:03.175Z,57.84
2023-02-23T14:13:26.522Z,57.57
2023-02-23T14:14:33.586Z,57.86
2023-02-23T14:15:38.176Z,57.61
2023-02-23T14:16:42.592Z,57.61
2023-02-23T14:18:19.168Z,57.40
2023-02-23T14:19:38.995Z,57.65
2023-02-23T14:21:05.439Z,58.28
2023-02-23T14:22:19.052Z,58.18
2023-02-23T14:23:23.375Z,57.84
2023-02-23T14:24:28.618Z,58.28
2023-02-23T14:25:36.966Z,58.21
2023-02-23T14:27:08.668Z,58.06
2023-02-23T14:28:36.282Z,58.36
2023-02-23T14:30:06.671Z,58.41
2023-02-23T14:31:13.907Z,58.49
2023-02-23T14:32:20.709Z,58.36
2023-02-23T14:33:56.994Z,58.35
2023-02-23T14:35:03.065Z,58.63
2023-02-23T14:36:24.396Z,58.48
2023-02-23T14:37:37.000Z,58.55
2023-02-23T14:38:48.000Z,58.59
2023-02-23T14:40:01.649Z,58.46
2023-02-23T14:41:10.199Z,58.78
2023-02-23T14:42:25.897Z,58.74
2023-02-23T14:43:38.599Z,58.85
2023-02-23T14:44:45.659Z,58.79
2023-02-23T14:45:56.462Z,59.04
2023-02-23T14:47:12.171Z,59.06
2023-02-23T14:48:17.696Z,59.34
2023-02-23T14:49:25.883Z,59.01
2023-02-23T14:50:36.771Z,58.98
2023-02-23T14:51:50.386Z,58.97
2023-02-23T14:52:57.607Z,59.04
2023-02-23T14:54:16.102Z,59.24
2023-02-23T14:55:29.226Z,59.19
2023-02-23T14:56:43.677Z,59.66
2023-02-23T14:57:50.321Z,59.28
2023-02-23T14:58:59.165Z,59.50
2023-02-23T15:00:16.962Z,59.73
2023-02-23T15:01:41.372Z,59.61
2023-02-23T15:03:12.674Z,60.16
2023-02-23T15:04:27.991Z,59.98
2023-02-23T15:05:52.976Z,60.28
2023-02-23T15:07:03.064Z,60.34
2023-02-23T15:08:13.364Z,60.11
2023-02-23T15:09:31.402Z,59.98
2023-02-23T15:10:49.288Z,60.22
2023-02-23T15:11:55.880Z,60.26
2023-02-23T15:13:01.821Z,60.42
2023-02-23T15:14:08.799Z,60.18
2023-02-23T15:15:25.933Z,60.29
2023-02-23T15:16:35.557Z,60.92
2023-02-23T15:17:55.804Z,61.05
2023-02-23T15:19:05.510Z,61.01
2023-02-23T15:20:18.933Z,60.69
2023-02-23T15:21:25.536Z,60.96
2023-02-23T15:22:37.604Z,61.28
2023-02-23T15:23:45.532Z,61.07
2023-02-23T15:24:51.500Z,61.38
2023-02-23T15:25:57.884Z,61.54
2023-02-23T15:27:01.997Z,61.41
2023-02-23T15:28:29.992Z,61.37
2023-02-23T15:29:34.992Z,61.31
2023-02-23T15:30:48.455Z,61.49
2023-02-23T15:31:56.019Z,61.48
2023-02-23T15:33:14.787Z,61.68
2023-02-23T15:34:46.081Z,61.71
2023-02-23T15:36:24.194Z,61.93
2023-02-23T15:37:40.674Z,61.87
2023-02-23T15:38:51.397Z,61.81
2023-02-23T15:40:22.683Z,62.22
2023-02-23T15:41:40.492Z,62.33
2023-02-23T15:42:53.685Z,62.34
2023-02-23T15:44:27.440Z,62.71
2023-02-23T15:45:44.658Z,62.69
2023-02-23T15:47:01.115Z,62.55
2023-02-23T15:48:17.791Z,62.91
2023-02-23T15:49:26.316Z,63.01
2023-02-23T15:50:41.214Z,62.82
2023-02-23T15:51:51.352Z,62.98
2023-02-23T15:53:02.540Z,62.96
2023-02-23T15:54:43.332Z,63.55
2023-02-23T15:55:49.003Z,63.17
2023-02-23T15:57:07.434Z,63.32
2023-02-23T15:58:44.545Z,63.62
2023-02-23T15:59:56.201Z,63.56
2023-02-23T16:01:33.262Z,63.67
2023-02-23T16:02:38.485Z,63.42
2023-02-23T16:04:02.053Z,63.61
2023-02-23T16:05:25.669Z,63.67